This is the latest recevied weather packets stored in our database for station/object VA7NEZ. If no packets are shown the sender has not sent any weather packets the latest 10 day(s).
| Time | Temp. | Humidity | Pressure | Rain* | Wind** | Luminosity | Snow |
|---|---|---|---|---|---|---|---|
| 1778364376 | 27.22° C | 26% | 1016.7 hPa | 0 mm | - | - | - |
| 1778363806 | 22.78° C | 32% | 1016.9 hPa | 0 mm | - | - | - |
| 1778363266 | 22.78° C | 30% | 1017.1 hPa | 0 mm | - | - | - |
| 1778362711 | 22.78° C | 31% | 1017 hPa | 0 mm | - | - | - |
| 1778362116 | 22.78° C | 30% | 1017 hPa | 0 mm | - | - | - |
| 1778361571 | 0° C | 100% | 1017.2 hPa | 0 mm | - | - | - |
| 1778361012 | 22.78° C | 31% | 1017.3 hPa | 0 mm | - | - | - |
| 1778360431 | 22.78° C | 29% | 1017.5 hPa | 0 mm | - | - | - |
| 1778359920 | 22.22° C | 30% | 1017.5 hPa | 0 mm | - | - | - |
| 1778359426 | 22.22° C | 31% | 1017.7 hPa | 0 mm | - | - | - |
| 1778358837 | 21.67° C | 30% | 1017.6 hPa | 0 mm | - | - | - |
| 1778357736 | 20.56° C | 32% | 1017.9 hPa | 0 mm | - | - | - |
| 1778357251 | 20.56° C | 33% | 1018.1 hPa | 0 mm | - | - | - |
| 1778356691 | 20.56° C | 32% | 1018.2 hPa | 0 mm | - | - | - |
| 1778356197 | 20° C | 32% | 1018.3 hPa | 0 mm | - | - | - |
| 1778355691 | 20° C | 34% | 1018.5 hPa | 0 mm | - | - | - |
| 1778355113 | 20° C | 36% | 1018.5 hPa | 0 mm | - | - | - |
| 1778354516 | 19.44° C | 38% | 1018.8 hPa | 0 mm | - | - | - |
| 1778353962 | 19.44° C | 35% | 1019.1 hPa | 0 mm | - | - | - |
| 1778353396 | 19.44° C | 34% | 1019.2 hPa | 0 mm | - | - | - |
| 1778352916 | 18.89° C | 33% | 1019.4 hPa | 0 mm | - | - | - |
| 1778352362 | 18.89° C | 34% | 1019.3 hPa | 0 mm | - | - | - |
| 1778351861 | 18.33° C | 35% | 1019.5 hPa | 0 mm | - | - | - |
| 1778351321 | 17.78° C | 36% | 1019.6 hPa | 0 mm | - | - | - |
| 1778350786 | 17.78° C | 37% | 1019.7 hPa | 0 mm | - | - | - |
* Rain latest hour (hover to see other rain measurements)
** Current wind speed in m/s (hover to see current wind gust speed)